메인 페이지
METAR-TAF:

METAR-TAF

공항 :

나타우, 히우그란지두노르치, 브라질

위도: 05-46-05S, 경도: 035-22-34W, 고도: 88m

현재 날씨관측

예보는 3 시간 0분 전, 16:00시(UTC)에 발표되었습니다.
15kt, 순간 최대 풍속 25kt남동풍과 남남서풍을 오가는
온도 31°C
습도 52%
기압 1013 hPa
시정 10km 이상
고도 2000ft 상공 구름 많음

METAR: SBSG 161600Z 17015G25KT 140V200 9999 BKN020 31/20 Q1013

시각: 16:00 (19:00 UTC)

예보

예보는 3 시간 30분 전, 15:30시(UTC)에 발표되었습니다.
예보 대상 시간: 16일 18시부터 17일 18시까지 (UTC)
13kt
시정 10km 이상
고도 2500ft 상공 구름 보통
전환 중
16시부터 12시까지 (UTC)
남남서7kt
전환 중
17일 11시부터 17일 12시까지 (UTC)
13kt
고도 3000ft 상공 구름 많음

TAF: SBSG 161530Z 1618/1718 17013KT 9999 SCT025 TX31/1618Z TN23/1707Z BECMG 16123/1624 20007KT BECMG 1711/1712 17013KT BKN030 RMK PCN

4,000개 이상의 공항 관측 자료 및 예보 (METAR 및 TAF 보고).

지도상에서 검색 가능한 기상관측소가 노란 점과 빨간 점으로 표시되어 있습니다.

기상관측소 명을 보려면 표시 위로 마우스를 이동하세요.

날씨 관측과 예보를 보려면 클릭하세요.

지도 변경 : 확대하려면 엑스 표시가 있는 녹색 버튼, 축소하려면 빼기 표시가 있는 녹색 버튼, 다음 페이지의 지도를 보려면 녹색 화살표를 클릭하세요.


METAR-TAF: